sensor_id;sensor_type;location;lat;lon;timestamp;P1;durP1;ratioP1;P2;durP2;ratioP2
17983;SDS011;9117;52.420;20.728;2022-11-20T00:01:07;46.87;;;19.20;;
17983;SDS011;9117;52.420;20.728;2022-11-20T00:03:37;46.27;;;20.70;;
17983;SDS011;9117;52.420;20.728;2022-11-20T00:06:06;48.63;;;19.13;;
17983;SDS011;9117;52.420;20.728;2022-11-20T00:08:35;56.13;;;20.40;;
17983;SDS011;9117;52.420;20.728;2022-11-20T00:11:04;52.17;;;20.30;;
17983;SDS011;9117;52.420;20.728;2022-11-20T00:13:40;54.03;;;21.50;;
17983;SDS011;9117;52.420;20.728;2022-11-20T00:16:12;51.70;;;20.57;;
17983;SDS011;9117;52.420;20.728;2022-11-20T00:18:42;54.50;;;20.10;;
17983;SDS011;9117;52.420;20.728;2022-11-20T00:21:11;55.00;;;22.63;;
17983;SDS011;9117;52.420;20.728;2022-11-20T00:23:40;52.83;;;21.17;;
17983;SDS011;9117;52.420;20.728;2022-11-20T00:26:09;62.77;;;23.60;;
17983;SDS011;9117;52.420;20.728;2022-11-20T00:28:38;60.27;;;22.07;;
17983;SDS011;9117;52.420;20.728;2022-11-20T00:31:09;50.70;;;20.27;;
17983;SDS011;9117;52.420;20.728;2022-11-20T00:33:38;55.97;;;20.97;;
17983;SDS011;9117;52.420;20.728;2022-11-20T00:36:07;52.47;;;20.87;;
17983;SDS011;9117;52.420;20.728;2022-11-20T00:38:36;53.00;;;21.77;;
17983;SDS011;9117;52.420;20.728;2022-11-20T00:41:05;51.97;;;21.17;;
17983;SDS011;9117;52.420;20.728;2022-11-20T00:43:35;55.23;;;21.77;;
17983;SDS011;9117;52.420;20.728;2022-11-20T00:46:05;55.60;;;20.70;;
17983;SDS011;9117;52.420;20.728;2022-11-20T00:48:34;52.17;;;19.50;;
17983;SDS011;9117;52.420;20.728;2022-11-20T00:51:03;51.97;;;19.23;;
17983;SDS011;9117;52.420;20.728;2022-11-20T00:53:32;56.37;;;22.77;;
17983;SDS011;9117;52.420;20.728;2022-11-20T00:56:00;53.87;;;20.83;;
17983;SDS011;9117;52.420;20.728;2022-11-20T00:58:30;52.10;;;22.10;;
17983;SDS011;9117;52.420;20.728;2022-11-20T01:00:59;55.63;;;20.57;;
17983;SDS011;9117;52.420;20.728;2022-11-20T01:03:31;61.30;;;22.77;;
17983;SDS011;9117;52.420;20.728;2022-11-20T01:06:00;58.57;;;21.77;;
17983;SDS011;9117;52.420;20.728;2022-11-20T01:08:29;52.13;;;20.40;;
17983;SDS011;9117;52.420;20.728;2022-11-20T01:11:00;57.67;;;21.80;;
17983;SDS011;9117;52.420;20.728;2022-11-20T01:13:29;58.03;;;23.77;;
17983;SDS011;9117;52.420;20.728;2022-11-20T01:16:08;52.87;;;21.30;;
17983;SDS011;9117;52.420;20.728;2022-11-20T01:18:39;57.83;;;23.63;;
17983;SDS011;9117;52.420;20.728;2022-11-20T01:21:09;55.63;;;20.33;;
17983;SDS011;9117;52.420;20.728;2022-11-20T01:23:39;56.63;;;21.63;;
17983;SDS011;9117;52.420;20.728;2022-11-20T01:26:10;54.17;;;22.47;;
17983;SDS011;9117;52.420;20.728;2022-11-20T01:28:40;57.40;;;22.03;;
17983;SDS011;9117;52.420;20.728;2022-11-20T01:31:12;61.40;;;24.03;;
17983;SDS011;9117;52.420;20.728;2022-11-20T01:33:42;58.63;;;22.47;;
17983;SDS011;9117;52.420;20.728;2022-11-20T01:36:12;55.40;;;22.33;;
17983;SDS011;9117;52.420;20.728;2022-11-20T01:38:41;53.70;;;23.87;;
17983;SDS011;9117;52.420;20.728;2022-11-20T01:41:11;58.33;;;21.80;;
17983;SDS011;9117;52.420;20.728;2022-11-20T01:44:01;50.80;;;21.77;;
17983;SDS011;9117;52.420;20.728;2022-11-20T01:46:29;63.70;;;23.90;;
17983;SDS011;9117;52.420;20.728;2022-11-20T01:49:00;52.80;;;21.40;;
17983;SDS011;9117;52.420;20.728;2022-11-20T01:51:32;53.70;;;21.87;;
17983;SDS011;9117;52.420;20.728;2022-11-20T01:54:07;60.10;;;23.30;;
17983;SDS011;9117;52.420;20.728;2022-11-20T01:56:38;56.80;;;22.73;;
17983;SDS011;9117;52.420;20.728;2022-11-20T01:59:09;59.20;;;23.53;;
17983;SDS011;9117;52.420;20.728;2022-11-20T02:01:41;52.37;;;21.00;;
17983;SDS011;9117;52.420;20.728;2022-11-20T02:04:10;59.40;;;23.00;;
17983;SDS011;9117;52.420;20.728;2022-11-20T02:06:40;52.40;;;21.97;;
17983;SDS011;9117;52.420;20.728;2022-11-20T02:09:13;59.83;;;23.50;;
17983;SDS011;9117;52.420;20.728;2022-11-20T02:11:41;57.90;;;23.13;;
17983;SDS011;9117;52.420;20.728;2022-11-20T02:14:10;60.73;;;22.77;;
17983;SDS011;9117;52.420;20.728;2022-11-20T02:16:38;58.13;;;22.10;;
17983;SDS011;9117;52.420;20.728;2022-11-20T02:19:13;60.73;;;24.40;;
17983;SDS011;9117;52.420;20.728;2022-11-20T02:21:51;54.83;;;22.70;;
17983;SDS011;9117;52.420;20.728;2022-11-20T02:24:26;53.07;;;21.43;;
17983;SDS011;9117;52.420;20.728;2022-11-20T02:26:57;53.83;;;22.90;;
17983;SDS011;9117;52.420;20.728;2022-11-20T02:29:27;54.93;;;22.10;;
17983;SDS011;9117;52.420;20.728;2022-11-20T02:32:00;58.00;;;20.73;;
17983;SDS011;9117;52.420;20.728;2022-11-20T02:34:29;54.13;;;21.70;;
17983;SDS011;9117;52.420;20.728;2022-11-20T02:36:57;54.63;;;22.23;;
17983;SDS011;9117;52.420;20.728;2022-11-20T02:39:28;49.73;;;21.37;;
17983;SDS011;9117;52.420;20.728;2022-11-20T02:41:56;47.13;;;20.77;;
17983;SDS011;9117;52.420;20.728;2022-11-20T02:44:24;47.87;;;20.90;;
17983;SDS011;9117;52.420;20.728;2022-11-20T02:46:52;54.13;;;23.07;;
17983;SDS011;9117;52.420;20.728;2022-11-20T02:49:20;53.57;;;21.40;;
17983;SDS011;9117;52.420;20.728;2022-11-20T02:51:48;50.10;;;20.70;;
17983;SDS011;9117;52.420;20.728;2022-11-20T02:54:17;55.03;;;21.67;;
17983;SDS011;9117;52.420;20.728;2022-11-20T02:56:46;49.30;;;21.30;;
17983;SDS011;9117;52.420;20.728;2022-11-20T02:59:14;53.73;;;20.10;;
17983;SDS011;9117;52.420;20.728;2022-11-20T03:01:42;50.07;;;21.73;;
17983;SDS011;9117;52.420;20.728;2022-11-20T03:04:10;57.63;;;21.33;;
17983;SDS011;9117;52.420;20.728;2022-11-20T03:06:38;55.27;;;21.20;;
17983;SDS011;9117;52.420;20.728;2022-11-20T03:09:06;50.00;;;21.30;;
17983;SDS011;9117;52.420;20.728;2022-11-20T03:11:35;55.10;;;21.37;;
17983;SDS011;9117;52.420;20.728;2022-11-20T03:14:04;52.23;;;21.00;;
17983;SDS011;9117;52.420;20.728;2022-11-20T03:16:33;54.97;;;21.90;;
17983;SDS011;9117;52.420;20.728;2022-11-20T03:19:01;55.07;;;22.40;;
17983;SDS011;9117;52.420;20.728;2022-11-20T03:21:29;51.73;;;21.37;;
17983;SDS011;9117;52.420;20.728;2022-11-20T03:23:57;52.97;;;21.90;;
17983;SDS011;9117;52.420;20.728;2022-11-20T03:26:25;52.37;;;20.17;;
17983;SDS011;9117;52.420;20.728;2022-11-20T03:28:54;50.13;;;20.33;;
17983;SDS011;9117;52.420;20.728;2022-11-20T03:31:26;50.10;;;20.23;;
17983;SDS011;9117;52.420;20.728;2022-11-20T03:33:56;56.43;;;21.57;;
17983;SDS011;9117;52.420;20.728;2022-11-20T03:36:25;56.63;;;20.70;;
17983;SDS011;9117;52.420;20.728;2022-11-20T03:38:54;53.47;;;20.90;;
17983;SDS011;9117;52.420;20.728;2022-11-20T03:41:23;50.27;;;21.43;;
17983;SDS011;9117;52.420;20.728;2022-11-20T03:43:53;53.13;;;20.20;;
17983;SDS011;9117;52.420;20.728;2022-11-20T03:46:22;49.57;;;20.67;;
17983;SDS011;9117;52.420;20.728;2022-11-20T03:48:52;58.67;;;22.30;;
17983;SDS011;9117;52.420;20.728;2022-11-20T03:51:21;49.70;;;19.23;;
17983;SDS011;9117;52.420;20.728;2022-11-20T03:53:51;50.20;;;21.60;;
17983;SDS011;9117;52.420;20.728;2022-11-20T03:56:21;55.73;;;20.97;;
17983;SDS011;9117;52.420;20.728;2022-11-20T03:58:50;54.10;;;21.27;;
17983;SDS011;9117;52.420;20.728;2022-11-20T04:01:19;47.93;;;19.73;;
17983;SDS011;9117;52.420;20.728;2022-11-20T04:03:48;49.50;;;21.47;;
17983;SDS011;9117;52.420;20.728;2022-11-20T04:06:20;57.73;;;21.37;;
17983;SDS011;9117;52.420;20.728;2022-11-20T04:08:49;52.40;;;21.63;;
17983;SDS011;9117;52.420;20.728;2022-11-20T04:11:20;48.57;;;18.97;;
17983;SDS011;9117;52.420;20.728;2022-11-20T04:13:49;47.43;;;19.57;;
17983;SDS011;9117;52.420;20.728;2022-11-20T04:16:18;58.43;;;21.40;;
17983;SDS011;9117;52.420;20.728;2022-11-20T04:18:50;46.93;;;21.23;;
17983;SDS011;9117;52.420;20.728;2022-11-20T04:21:21;58.90;;;21.53;;
17983;SDS011;9117;52.420;20.728;2022-11-20T04:23:50;48.07;;;19.43;;
17983;SDS011;9117;52.420;20.728;2022-11-20T04:26:20;56.00;;;20.80;;
17983;SDS011;9117;52.420;20.728;2022-11-20T04:28:49;53.10;;;20.53;;
17983;SDS011;9117;52.420;20.728;2022-11-20T04:31:17;52.00;;;19.43;;
17983;SDS011;9117;52.420;20.728;2022-11-20T04:33:46;54.53;;;22.07;;
17983;SDS011;9117;52.420;20.728;2022-11-20T04:36:15;52.63;;;20.70;;
17983;SDS011;9117;52.420;20.728;2022-11-20T04:38:46;49.80;;;20.53;;
17983;SDS011;9117;52.420;20.728;2022-11-20T04:41:23;49.57;;;20.90;;
17983;SDS011;9117;52.420;20.728;2022-11-20T04:43:52;49.43;;;21.53;;
17983;SDS011;9117;52.420;20.728;2022-11-20T04:46:25;55.03;;;22.23;;
17983;SDS011;9117;52.420;20.728;2022-11-20T04:48:54;50.43;;;20.30;;
17983;SDS011;9117;52.420;20.728;2022-11-20T04:51:23;60.10;;;21.97;;
17983;SDS011;9117;52.420;20.728;2022-11-20T04:53:52;50.37;;;21.33;;
17983;SDS011;9117;52.420;20.728;2022-11-20T04:56:21;50.13;;;19.77;;
17983;SDS011;9117;52.420;20.728;2022-11-20T04:58:49;48.37;;;20.33;;
17983;SDS011;9117;52.420;20.728;2022-11-20T05:01:18;41.13;;;17.47;;
17983;SDS011;9117;52.420;20.728;2022-11-20T05:03:47;48.00;;;19.17;;
17983;SDS011;9117;52.420;20.728;2022-11-20T05:06:16;58.73;;;22.47;;
17983;SDS011;9117;52.420;20.728;2022-11-20T05:08:46;57.93;;;21.93;;
17983;SDS011;9117;52.420;20.728;2022-11-20T05:11:17;55.37;;;19.83;;
17983;SDS011;9117;52.420;20.728;2022-11-20T05:13:46;52.60;;;20.77;;
17983;SDS011;9117;52.420;20.728;2022-11-20T05:16:16;54.27;;;21.57;;
17983;SDS011;9117;52.420;20.728;2022-11-20T05:18:46;58.57;;;21.93;;
17983;SDS011;9117;52.420;20.728;2022-11-20T05:21:14;58.23;;;22.37;;
17983;SDS011;9117;52.420;20.728;2022-11-20T05:23:43;52.20;;;21.03;;
17983;SDS011;9117;52.420;20.728;2022-11-20T05:26:13;41.93;;;17.17;;
17983;SDS011;9117;52.420;20.728;2022-11-20T05:28:43;50.60;;;21.70;;
17983;SDS011;9117;52.420;20.728;2022-11-20T05:31:12;55.53;;;22.47;;
17983;SDS011;9117;52.420;20.728;2022-11-20T05:33:41;50.53;;;20.40;;
17983;SDS011;9117;52.420;20.728;2022-11-20T05:36:10;53.10;;;21.33;;
17983;SDS011;9117;52.420;20.728;2022-11-20T05:38:40;55.10;;;21.93;;
17983;SDS011;9117;52.420;20.728;2022-11-20T05:41:09;56.97;;;21.90;;
17983;SDS011;9117;52.420;20.728;2022-11-20T05:43:39;63.60;;;21.70;;
17983;SDS011;9117;52.420;20.728;2022-11-20T05:46:09;56.57;;;21.07;;
17983;SDS011;9117;52.420;20.728;2022-11-20T05:48:40;59.30;;;20.13;;
17983;SDS011;9117;52.420;20.728;2022-11-20T05:51:10;56.17;;;22.17;;
17983;SDS011;9117;52.420;20.728;2022-11-20T05:53:40;56.50;;;23.30;;
17983;SDS011;9117;52.420;20.728;2022-11-20T05:56:14;47.00;;;20.23;;
17983;SDS011;9117;52.420;20.728;2022-11-20T05:58:44;54.07;;;21.33;;
17983;SDS011;9117;52.420;20.728;2022-11-20T06:01:16;57.13;;;22.43;;
17983;SDS011;9117;52.420;20.728;2022-11-20T06:03:45;56.77;;;22.90;;
17983;SDS011;9117;52.420;20.728;2022-11-20T06:06:14;43.43;;;17.67;;
17983;SDS011;9117;52.420;20.728;2022-11-20T06:08:42;51.37;;;20.30;;
17983;SDS011;9117;52.420;20.728;2022-11-20T06:11:10;60.07;;;21.17;;
17983;SDS011;9117;52.420;20.728;2022-11-20T06:13:39;63.67;;;21.93;;
17983;SDS011;9117;52.420;20.728;2022-11-20T06:16:08;58.57;;;20.93;;
17983;SDS011;9117;52.420;20.728;2022-11-20T06:18:38;60.13;;;23.33;;
17983;SDS011;9117;52.420;20.728;2022-11-20T06:21:08;60.13;;;22.53;;
17983;SDS011;9117;52.420;20.728;2022-11-20T06:23:37;53.87;;;21.03;;
17983;SDS011;9117;52.420;20.728;2022-11-20T06:26:06;63.53;;;23.07;;
17983;SDS011;9117;52.420;20.728;2022-11-20T06:28:35;57.10;;;22.57;;
17983;SDS011;9117;52.420;20.728;2022-11-20T06:31:03;55.43;;;22.07;;
17983;SDS011;9117;52.420;20.728;2022-11-20T06:33:32;56.67;;;22.60;;
17983;SDS011;9117;52.420;20.728;2022-11-20T06:36:03;63.40;;;22.70;;
17983;SDS011;9117;52.420;20.728;2022-11-20T06:38:36;61.13;;;22.93;;
17983;SDS011;9117;52.420;20.728;2022-11-20T06:41:05;63.40;;;24.83;;
17983;SDS011;9117;52.420;20.728;2022-11-20T06:43:33;54.83;;;22.10;;
17983;SDS011;9117;52.420;20.728;2022-11-20T06:46:01;58.63;;;22.37;;
17983;SDS011;9117;52.420;20.728;2022-11-20T06:48:30;60.63;;;24.30;;
17983;SDS011;9117;52.420;20.728;2022-11-20T06:50:59;57.50;;;22.30;;
17983;SDS011;9117;52.420;20.728;2022-11-20T06:53:31;59.63;;;23.10;;
17983;SDS011;9117;52.420;20.728;2022-11-20T06:55:59;62.57;;;22.87;;
17983;SDS011;9117;52.420;20.728;2022-11-20T06:58:28;53.97;;;22.20;;
17983;SDS011;9117;52.420;20.728;2022-11-20T07:00:57;58.97;;;22.57;;
17983;SDS011;9117;52.420;20.728;2022-11-20T07:03:26;55.43;;;23.00;;
17983;SDS011;9117;52.420;20.728;2022-11-20T07:05:55;64.00;;;23.00;;
17983;SDS011;9117;52.420;20.728;2022-11-20T07:08:23;66.17;;;22.63;;
17983;SDS011;9117;52.420;20.728;2022-11-20T07:10:56;60.87;;;23.73;;
17983;SDS011;9117;52.420;20.728;2022-11-20T07:13:25;57.43;;;23.90;;
17983;SDS011;9117;52.420;20.728;2022-11-20T07:15:53;58.07;;;23.33;;
17983;SDS011;9117;52.420;20.728;2022-11-20T07:18:21;63.57;;;23.00;;
17983;SDS011;9117;52.420;20.728;2022-11-20T07:20:49;63.40;;;24.97;;
17983;SDS011;9117;52.420;20.728;2022-11-20T07:23:17;60.70;;;25.07;;
17983;SDS011;9117;52.420;20.728;2022-11-20T07:25:45;61.23;;;24.30;;
17983;SDS011;9117;52.420;20.728;2022-11-20T07:28:14;61.97;;;23.43;;
17983;SDS011;9117;52.420;20.728;2022-11-20T07:30:43;62.70;;;24.73;;
17983;SDS011;9117;52.420;20.728;2022-11-20T07:33:17;58.93;;;23.80;;
17983;SDS011;9117;52.420;20.728;2022-11-20T07:35:45;55.77;;;23.33;;
17983;SDS011;9117;52.420;20.728;2022-11-20T07:38:14;59.63;;;24.20;;
17983;SDS011;9117;52.420;20.728;2022-11-20T07:40:45;56.40;;;23.20;;
17983;SDS011;9117;52.420;20.728;2022-11-20T07:43:14;61.07;;;23.10;;
17983;SDS011;9117;52.420;20.728;2022-11-20T07:45:42;59.00;;;22.97;;
17983;SDS011;9117;52.420;20.728;2022-11-20T07:48:11;62.00;;;25.03;;
17983;SDS011;9117;52.420;20.728;2022-11-20T07:50:39;66.53;;;24.73;;
17983;SDS011;9117;52.420;20.728;2022-11-20T07:53:07;61.03;;;24.77;;
17983;SDS011;9117;52.420;20.728;2022-11-20T07:55:35;60.00;;;25.07;;
17983;SDS011;9117;52.420;20.728;2022-11-20T07:58:03;62.63;;;24.73;;
17983;SDS011;9117;52.420;20.728;2022-11-20T08:00:32;56.27;;;24.50;;
17983;SDS011;9117;52.420;20.728;2022-11-20T08:03:03;69.17;;;25.43;;
17983;SDS011;9117;52.420;20.728;2022-11-20T08:05:32;54.70;;;23.00;;
17983;SDS011;9117;52.420;20.728;2022-11-20T08:08:03;60.60;;;23.53;;
17983;SDS011;9117;52.420;20.728;2022-11-20T08:10:33;66.80;;;24.23;;
17983;SDS011;9117;52.420;20.728;2022-11-20T08:13:01;63.10;;;24.00;;
17983;SDS011;9117;52.420;20.728;2022-11-20T08:15:49;54.80;;;23.00;;
17983;SDS011;9117;52.420;20.728;2022-11-20T08:18:18;64.03;;;23.80;;
17983;SDS011;9117;52.420;20.728;2022-11-20T08:20:57;57.53;;;23.63;;
17983;SDS011;9117;52.420;20.728;2022-11-20T08:23:25;60.17;;;23.37;;
17983;SDS011;9117;52.420;20.728;2022-11-20T08:25:53;69.93;;;22.50;;
17983;SDS011;9117;52.420;20.728;2022-11-20T08:28:21;61.43;;;23.93;;
17983;SDS011;9117;52.420;20.728;2022-11-20T08:30:51;62.87;;;23.73;;
17983;SDS011;9117;52.420;20.728;2022-11-20T08:33:24;68.57;;;25.13;;
17983;SDS011;9117;52.420;20.728;2022-11-20T08:35:52;63.57;;;23.77;;
17983;SDS011;9117;52.420;20.728;2022-11-20T08:38:20;65.17;;;24.63;;
17983;SDS011;9117;52.420;20.728;2022-11-20T08:40:48;61.23;;;23.30;;
17983;SDS011;9117;52.420;20.728;2022-11-20T08:43:30;61.00;;;25.10;;
17983;SDS011;9117;52.420;20.728;2022-11-20T08:46:00;68.63;;;25.80;;
17983;SDS011;9117;52.420;20.728;2022-11-20T08:48:28;58.67;;;24.70;;
17983;SDS011;9117;52.420;20.728;2022-11-20T08:50:57;62.10;;;24.23;;
17983;SDS011;9117;52.420;20.728;2022-11-20T08:53:25;62.70;;;25.17;;
17983;SDS011;9117;52.420;20.728;2022-11-20T08:55:54;59.53;;;24.40;;
17983;SDS011;9117;52.420;20.728;2022-11-20T08:58:23;64.80;;;24.30;;
17983;SDS011;9117;52.420;20.728;2022-11-20T09:00:52;61.50;;;24.73;;
17983;SDS011;9117;52.420;20.728;2022-11-20T09:03:21;54.77;;;24.07;;
17983;SDS011;9117;52.420;20.728;2022-11-20T09:05:57;59.37;;;24.17;;
17983;SDS011;9117;52.420;20.728;2022-11-20T09:08:26;56.47;;;22.83;;
17983;SDS011;9117;52.420;20.728;2022-11-20T09:10:55;58.53;;;24.67;;
17983;SDS011;9117;52.420;20.728;2022-11-20T09:13:24;62.17;;;24.50;;
17983;SDS011;9117;52.420;20.728;2022-11-20T09:15:53;63.70;;;24.93;;
17983;SDS011;9117;52.420;20.728;2022-11-20T09:18:26;59.33;;;23.60;;
17983;SDS011;9117;52.420;20.728;2022-11-20T09:20:56;55.00;;;23.27;;
17983;SDS011;9117;52.420;20.728;2022-11-20T09:23:25;56.87;;;23.87;;
17983;SDS011;9117;52.420;20.728;2022-11-20T09:25:53;62.47;;;24.53;;
17983;SDS011;9117;52.420;20.728;2022-11-20T09:28:25;56.13;;;22.27;;
17983;SDS011;9117;52.420;20.728;2022-11-20T09:30:53;61.73;;;24.13;;
17983;SDS011;9117;52.420;20.728;2022-11-20T09:33:25;66.90;;;25.77;;
17983;SDS011;9117;52.420;20.728;2022-11-20T09:35:54;65.07;;;25.30;;
17983;SDS011;9117;52.420;20.728;2022-11-20T09:38:22;58.93;;;25.07;;
17983;SDS011;9117;52.420;20.728;2022-11-20T09:40:51;57.50;;;24.20;;
17983;SDS011;9117;52.420;20.728;2022-11-20T09:43:26;63.87;;;23.83;;
17983;SDS011;9117;52.420;20.728;2022-11-20T09:46:09;56.93;;;24.30;;
17983;SDS011;9117;52.420;20.728;2022-11-20T09:48:45;62.67;;;23.43;;
17983;SDS011;9117;52.420;20.728;2022-11-20T09:51:24;53.53;;;22.83;;
17983;SDS011;9117;52.420;20.728;2022-11-20T09:54:05;51.37;;;23.17;;
17983;SDS011;9117;52.420;20.728;2022-11-20T09:56:41;62.47;;;24.33;;
17983;SDS011;9117;52.420;20.728;2022-11-20T10:02:48;59.60;;;25.07;;
17983;SDS011;9117;52.420;20.728;2022-11-20T10:05:25;56.67;;;24.67;;
17983;SDS011;9117;52.420;20.728;2022-11-20T10:08:07;56.50;;;23.67;;
17983;SDS011;9117;52.420;20.728;2022-11-20T10:10:42;61.97;;;24.70;;
17983;SDS011;9117;52.420;20.728;2022-11-20T10:13:21;56.30;;;24.63;;
17983;SDS011;9117;52.420;20.728;2022-11-20T10:16:07;61.13;;;24.20;;
17983;SDS011;9117;52.420;20.728;2022-11-20T10:18:46;57.40;;;23.90;;
17983;SDS011;9117;52.420;20.728;2022-11-20T10:21:27;53.23;;;23.43;;
17983;SDS011;9117;52.420;20.728;2022-11-20T10:24:07;63.37;;;23.80;;
17983;SDS011;9117;52.420;20.728;2022-11-20T10:26:59;52.73;;;22.10;;
17983;SDS011;9117;52.420;20.728;2022-11-20T10:29:36;55.80;;;23.67;;
17983;SDS011;9117;52.420;20.728;2022-11-20T10:32:10;55.33;;;22.67;;
17983;SDS011;9117;52.420;20.728;2022-11-20T10:34:44;59.33;;;23.50;;
17983;SDS011;9117;52.420;20.728;2022-11-20T10:37:21;57.20;;;23.70;;
17983;SDS011;9117;52.420;20.728;2022-11-20T10:39:54;60.03;;;23.00;;
17983;SDS011;9117;52.420;20.728;2022-11-20T10:42:29;55.77;;;22.87;;
17983;SDS011;9117;52.420;20.728;2022-11-20T10:45:02;55.93;;;22.30;;
17983;SDS011;9117;52.420;20.728;2022-11-20T10:47:41;51.87;;;23.20;;
17983;SDS011;9117;52.420;20.728;2022-11-20T10:50:10;54.57;;;23.30;;
17983;SDS011;9117;52.420;20.728;2022-11-20T10:52:51;50.60;;;22.20;;
17983;SDS011;9117;52.420;20.728;2022-11-20T10:55:30;58.60;;;24.50;;
17983;SDS011;9117;52.420;20.728;2022-11-20T10:58:08;61.47;;;23.07;;
17983;SDS011;9117;52.420;20.728;2022-11-20T11:00:41;50.80;;;21.83;;
17983;SDS011;9117;52.420;20.728;2022-11-20T11:03:14;51.10;;;22.57;;
17983;SDS011;9117;52.420;20.728;2022-11-20T11:05:50;57.50;;;23.23;;
17983;SDS011;9117;52.420;20.728;2022-11-20T11:08:23;65.00;;;24.87;;
17983;SDS011;9117;52.420;20.728;2022-11-20T11:10:56;62.37;;;24.33;;
17983;SDS011;9117;52.420;20.728;2022-11-20T11:13:28;51.83;;;23.87;;
17983;SDS011;9117;52.420;20.728;2022-11-20T11:15:57;50.10;;;22.63;;
17983;SDS011;9117;52.420;20.728;2022-11-20T11:18:33;52.17;;;22.80;;
17983;SDS011;9117;52.420;20.728;2022-11-20T11:21:02;55.03;;;24.07;;
17983;SDS011;9117;52.420;20.728;2022-11-20T11:23:34;56.67;;;22.83;;
17983;SDS011;9117;52.420;20.728;2022-11-20T11:26:06;60.83;;;24.93;;
17983;SDS011;9117;52.420;20.728;2022-11-20T11:28:52;54.27;;;23.03;;
17983;SDS011;9117;52.420;20.728;2022-11-20T11:31:22;56.87;;;24.47;;
17983;SDS011;9117;52.420;20.728;2022-11-20T11:33:51;53.00;;;22.83;;
17983;SDS011;9117;52.420;20.728;2022-11-20T11:36:20;58.53;;;25.10;;
17983;SDS011;9117;52.420;20.728;2022-11-20T11:38:52;63.57;;;24.47;;
17983;SDS011;9117;52.420;20.728;2022-11-20T11:41:22;59.50;;;24.17;;
17983;SDS011;9117;52.420;20.728;2022-11-20T11:43:53;49.07;;;21.77;;
17983;SDS011;9117;52.420;20.728;2022-11-20T11:46:43;44.70;;;18.90;;
17983;SDS011;9117;52.420;20.728;2022-11-20T11:49:20;49.70;;;21.10;;
17983;SDS011;9117;52.420;20.728;2022-11-20T11:54:43;48.53;;;21.20;;
17983;SDS011;9117;52.420;20.728;2022-11-20T11:57:17;53.73;;;19.87;;
17983;SDS011;9117;52.420;20.728;2022-11-20T11:59:57;50.10;;;19.70;;
17983;SDS011;9117;52.420;20.728;2022-11-20T12:02:31;51.10;;;20.67;;
17983;SDS011;9117;52.420;20.728;2022-11-20T12:05:06;54.70;;;21.60;;
17983;SDS011;9117;52.420;20.728;2022-11-20T12:07:43;46.33;;;20.63;;
17983;SDS011;9117;52.420;20.728;2022-11-20T12:10:21;50.23;;;20.90;;
17983;SDS011;9117;52.420;20.728;2022-11-20T12:12:58;50.00;;;22.67;;
17983;SDS011;9117;52.420;20.728;2022-11-20T12:15:32;49.10;;;21.40;;
17983;SDS011;9117;52.420;20.728;2022-11-20T12:18:01;52.23;;;21.83;;
17983;SDS011;9117;52.420;20.728;2022-11-20T12:20:32;50.73;;;21.83;;
17983;SDS011;9117;52.420;20.728;2022-11-20T12:23:08;50.93;;;21.27;;
17983;SDS011;9117;52.420;20.728;2022-11-20T12:25:46;53.03;;;22.43;;
17983;SDS011;9117;52.420;20.728;2022-11-20T12:28:27;53.00;;;21.27;;
17983;SDS011;9117;52.420;20.728;2022-11-20T12:31:14;51.57;;;22.53;;
17983;SDS011;9117;52.420;20.728;2022-11-20T12:33:55;50.53;;;21.47;;
17983;SDS011;9117;52.420;20.728;2022-11-20T12:36:37;52.03;;;22.10;;
17983;SDS011;9117;52.420;20.728;2022-11-20T12:39:30;52.17;;;22.00;;
17983;SDS011;9117;52.420;20.728;2022-11-20T12:42:11;46.87;;;22.17;;
17983;SDS011;9117;52.420;20.728;2022-11-20T12:51:09;54.63;;;21.67;;
17983;SDS011;9117;52.420;20.728;2022-11-20T12:53:55;50.43;;;22.17;;
17983;SDS011;9117;52.420;20.728;2022-11-20T12:56:34;53.53;;;22.57;;
17983;SDS011;9117;52.420;20.728;2022-11-20T13:02:19;49.40;;;21.27;;
17983;SDS011;9117;52.420;20.728;2022-11-20T13:05:02;55.40;;;22.90;;
17983;SDS011;9117;52.420;20.728;2022-11-20T13:07:43;48.33;;;22.20;;
17983;SDS011;9117;52.420;20.728;2022-11-20T13:10:14;51.90;;;21.87;;
17983;SDS011;9117;52.420;20.728;2022-11-20T13:12:49;50.57;;;21.60;;
17983;SDS011;9117;52.420;20.728;2022-11-20T13:15:26;55.87;;;21.23;;
17983;SDS011;9117;52.420;20.728;2022-11-20T13:18:02;50.40;;;21.07;;
17983;SDS011;9117;52.420;20.728;2022-11-20T13:20:35;51.43;;;21.67;;
17983;SDS011;9117;52.420;20.728;2022-11-20T13:23:08;51.40;;;21.87;;
17983;SDS011;9117;52.420;20.728;2022-11-20T13:25:36;51.97;;;20.87;;
17983;SDS011;9117;52.420;20.728;2022-11-20T13:30:57;49.40;;;21.53;;
17983;SDS011;9117;52.420;20.728;2022-11-20T13:33:27;51.40;;;21.97;;
17983;SDS011;9117;52.420;20.728;2022-11-20T13:35:58;57.43;;;22.87;;
17983;SDS011;9117;52.420;20.728;2022-11-20T13:38:28;47.00;;;20.40;;
17983;SDS011;9117;52.420;20.728;2022-11-20T13:41:07;52.77;;;22.53;;
17983;SDS011;9117;52.420;20.728;2022-11-20T13:43:51;49.20;;;21.53;;
17983;SDS011;9117;52.420;20.728;2022-11-20T13:46:21;50.63;;;21.20;;
17983;SDS011;9117;52.420;20.728;2022-11-20T13:48:50;54.47;;;22.90;;
17983;SDS011;9117;52.420;20.728;2022-11-20T13:51:25;52.27;;;22.40;;
17983;SDS011;9117;52.420;20.728;2022-11-20T13:54:10;50.90;;;21.37;;
17983;SDS011;9117;52.420;20.728;2022-11-20T13:57:15;51.33;;;21.53;;
17983;SDS011;9117;52.420;20.728;2022-11-20T14:00:05;49.07;;;21.13;;
17983;SDS011;9117;52.420;20.728;2022-11-20T14:02:40;46.10;;;20.50;;
17983;SDS011;9117;52.420;20.728;2022-11-20T14:05:15;56.27;;;22.67;;
17983;SDS011;9117;52.420;20.728;2022-11-20T14:07:47;48.87;;;21.90;;
17983;SDS011;9117;52.420;20.728;2022-11-20T14:10:21;57.30;;;21.67;;
17983;SDS011;9117;52.420;20.728;2022-11-20T14:12:57;48.77;;;20.87;;
17983;SDS011;9117;52.420;20.728;2022-11-20T14:15:26;54.67;;;22.33;;
17983;SDS011;9117;52.420;20.728;2022-11-20T14:17:58;45.43;;;18.93;;
17983;SDS011;9117;52.420;20.728;2022-11-20T14:20:28;50.43;;;20.83;;
17983;SDS011;9117;52.420;20.728;2022-11-20T14:22:59;51.13;;;21.20;;
17983;SDS011;9117;52.420;20.728;2022-11-20T14:25:27;52.43;;;21.13;;
17983;SDS011;9117;52.420;20.728;2022-11-20T14:27:57;58.03;;;23.40;;
17983;SDS011;9117;52.420;20.728;2022-11-20T14:30:27;51.53;;;21.40;;
17983;SDS011;9117;52.420;20.728;2022-11-20T14:33:01;55.63;;;22.43;;
17983;SDS011;9117;52.420;20.728;2022-11-20T14:35:31;54.00;;;20.60;;
17983;SDS011;9117;52.420;20.728;2022-11-20T14:38:04;54.37;;;21.57;;
17983;SDS011;9117;52.420;20.728;2022-11-20T14:40:39;52.63;;;22.07;;
17983;SDS011;9117;52.420;20.728;2022-11-20T14:43:16;48.50;;;20.27;;
17983;SDS011;9117;52.420;20.728;2022-11-20T14:45:46;54.43;;;22.47;;
17983;SDS011;9117;52.420;20.728;2022-11-20T14:48:24;56.53;;;25.00;;
17983;SDS011;9117;52.420;20.728;2022-11-20T14:50:57;56.03;;;23.07;;
17983;SDS011;9117;52.420;20.728;2022-11-20T14:53:25;54.20;;;22.80;;
17983;SDS011;9117;52.420;20.728;2022-11-20T14:55:54;55.63;;;22.20;;
17983;SDS011;9117;52.420;20.728;2022-11-20T14:58:27;55.63;;;21.13;;
17983;SDS011;9117;52.420;20.728;2022-11-20T15:00:58;54.17;;;21.60;;
17983;SDS011;9117;52.420;20.728;2022-11-20T15:03:34;54.33;;;23.03;;
17983;SDS011;9117;52.420;20.728;2022-11-20T15:06:04;48.07;;;20.33;;